Time;durP1;ratioP1;P1;durP2;ratioP2;P2;SDS_P1;SDS_P2;PMS_P1;PMS_P2;Temp;Humidity;BMP_temperature;BMP_pressure;BME280_temperature;BME280_humidity;BME280_pressure;Samples;Min_cycle;Max_cycle;Signal;HPM_P1;HPM_P2
2022/03/24 00:01:51;;;;;;;146.47;59.70;;;;;;;;;;5020524;28;20242;-74
2022/03/24 00:04:16;;;;;;;178.53;75.60;;;;;;;;;;4985418;28;20353;-74
2022/03/24 00:06:42;;;;;;;210.53;89.80;;;;;;;;;;4993003;28;20184;-74
2022/03/24 00:09:07;;;;;;;154.53;68.43;;;;;;;;;;4990346;28;20185;-74
2022/03/24 00:11:32;;;;;;;146.63;63.20;;;;;;;;;;4993515;28;20176;-74
2022/03/24 00:13:58;;;;;;;182.53;83.10;;;;;;;;;;4992616;28;20186;-75
2022/03/24 00:16:23;;;;;;;85.70;43.30;;;;;;;;;;4999810;28;20274;-74
2022/03/24 00:18:49;;;;;;;60.13;31.77;;;;;;;;;;4995373;28;20209;-74
2022/03/24 00:21:17;;;;;;;75.17;38.57;;;;;;;;;;5023901;28;20188;-74
2022/03/24 00:23:43;;;;;;;77.20;38.13;;;;;;;;;;5011726;28;20236;-74
2022/03/24 00:26:08;;;;;;;62.00;33.57;;;;;;;;;;5010645;28;20182;-74
2022/03/24 00:28:33;;;;;;;66.27;33.30;;;;;;;;;;5016843;28;20210;-74
2022/03/24 00:30:58;;;;;;;55.07;30.40;;;;;;;;;;5020851;28;20193;-74
2022/03/24 00:33:24;;;;;;;34.90;21.90;;;;;;;;;;4994050;28;20183;-74
2022/03/24 00:35:49;;;;;;;31.00;18.50;;;;;;;;;;5017877;28;20487;-74
2022/03/24 00:38:15;;;;;;;22.83;14.23;;;;;;;;;;4996182;28;20209;-74
2022/03/24 00:40:40;;;;;;;42.40;21.43;;;;;;;;;;5034202;28;20183;-74
2022/03/24 00:43:05;;;;;;;40.70;20.87;;;;;;;;;;5009114;28;20354;-74
2022/03/24 00:45:30;;;;;;;32.97;20.10;;;;;;;;;;5020109;28;20181;-72
2022/03/24 00:47:55;;;;;;;27.53;17.40;;;;;;;;;;4998050;28;20191;-72
2022/03/24 00:50:21;;;;;;;29.03;16.43;;;;;;;;;;5023984;28;20201;-72
2022/03/24 00:52:46;;;;;;;18.83;12.03;;;;;;;;;;5036002;28;20189;-72
2022/03/24 00:55:13;;;;;;;17.27;12.20;;;;;;;;;;4994519;28;20283;-72
2022/03/24 00:57:39;;;;;;;21.50;14.40;;;;;;;;;;5004205;28;20207;-72
2022/03/24 01:00:05;;;;;;;19.70;14.40;;;;;;;;;;5012951;28;20170;-73
2022/03/24 01:02:30;;;;;;;20.43;12.93;;;;;;;;;;4995426;28;20174;-74
2022/03/24 01:04:55;;;;;;;17.53;12.37;;;;;;;;;;5025388;28;20206;-74
2022/03/24 01:07:21;;;;;;;20.07;12.67;;;;;;;;;;5015088;28;20185;-73
2022/03/24 01:09:47;;;;;;;18.20;11.40;;;;;;;;;;5005799;28;20190;-74
2022/03/24 01:12:13;;;;;;;17.90;11.90;;;;;;;;;;5019092;28;20179;-74
2022/03/24 01:14:38;;;;;;;16.03;10.90;;;;;;;;;;4993991;28;20199;-74
2022/03/24 01:17:04;;;;;;;16.43;11.10;;;;;;;;;;5012907;28;20325;-74
2022/03/24 01:19:29;;;;;;;14.73;10.37;;;;;;;;;;4992193;28;20185;-74
2022/03/24 01:21:55;;;;;;;15.90;10.60;;;;;;;;;;4994037;28;20219;-74
2022/03/24 01:24:20;;;;;;;14.63;9.70;;;;;;;;;;5004072;28;20180;-74
2022/03/24 01:26:45;;;;;;;18.17;9.60;;;;;;;;;;4995266;28;20196;-74
2022/03/24 01:29:11;;;;;;;14.17;9.23;;;;;;;;;;5001994;28;20179;-74
2022/03/24 01:31:39;;;;;;;14.23;9.20;;;;;;;;;;4993151;28;20239;-74
2022/03/24 01:34:04;;;;;;;12.30;9.40;;;;;;;;;;4989705;28;20178;-74
2022/03/24 01:36:29;;;;;;;13.40;8.63;;;;;;;;;;4993288;28;20183;-74
2022/03/24 01:38:54;;;;;;;14.73;9.53;;;;;;;;;;5012649;28;20295;-74
2022/03/24 01:41:22;;;;;;;12.67;9.07;;;;;;;;;;5008985;28;20238;-75
2022/03/24 01:43:47;;;;;;;11.77;8.23;;;;;;;;;;4997995;28;20183;-74
2022/03/24 01:46:12;;;;;;;10.20;8.47;;;;;;;;;;4986002;28;20194;-74
2022/03/24 01:48:37;;;;;;;14.80;8.87;;;;;;;;;;5008073;28;20215;-74
2022/03/24 01:51:03;;;;;;;11.97;9.10;;;;;;;;;;4990809;28;20198;-74
2022/03/24 01:53:28;;;;;;;9.70;8.07;;;;;;;;;;4994789;28;20177;-74
2022/03/24 01:55:54;;;;;;;12.77;9.93;;;;;;;;;;5013869;28;20183;-74
2022/03/24 01:58:21;;;;;;;13.97;8.83;;;;;;;;;;4994147;28;20212;-75
2022/03/24 02:00:47;;;;;;;13.70;8.63;;;;;;;;;;4993652;28;20209;-74
2022/03/24 02:03:14;;;;;;;11.80;8.30;;;;;;;;;;5005286;28;20191;-74
2022/03/24 02:05:40;;;;;;;12.07;8.27;;;;;;;;;;4991844;28;20233;-74
2022/03/24 02:08:05;;;;;;;12.13;8.07;;;;;;;;;;5005512;28;20212;-74
2022/03/24 02:10:31;;;;;;;14.53;8.33;;;;;;;;;;4995043;28;20184;-74
2022/03/24 02:12:57;;;;;;;13.93;10.63;;;;;;;;;;5009790;28;20272;-74
2022/03/24 02:15:22;;;;;;;16.07;9.40;;;;;;;;;;5009052;28;20311;-74
2022/03/24 02:17:48;;;;;;;11.40;8.37;;;;;;;;;;5007742;28;20215;-74
2022/03/24 02:20:14;;;;;;;12.03;9.47;;;;;;;;;;4992711;28;20190;-74
2022/03/24 02:22:39;;;;;;;14.57;8.63;;;;;;;;;;4992158;28;20183;-74
2022/03/24 02:25:07;;;;;;;11.17;8.47;;;;;;;;;;4995657;28;20209;-74
2022/03/24 02:27:32;;;;;;;11.97;8.53;;;;;;;;;;4996153;28;20180;-74
2022/03/24 02:29:57;;;;;;;9.70;7.13;;;;;;;;;;4995050;28;20185;-75
2022/03/24 02:32:22;;;;;;;11.90;7.93;;;;;;;;;;4999166;28;20193;-74
2022/03/24 02:34:48;;;;;;;13.60;8.70;;;;;;;;;;4991973;28;20237;-74
2022/03/24 02:37:15;;;;;;;13.50;8.30;;;;;;;;;;4995267;28;20202;-74
2022/03/24 02:39:41;;;;;;;10.73;8.03;;;;;;;;;;5012674;28;20178;-74
2022/03/24 02:42:07;;;;;;;12.60;8.70;;;;;;;;;;5011619;28;20253;-74
2022/03/24 02:44:32;;;;;;;11.83;7.67;;;;;;;;;;4996984;28;20167;-74
2022/03/24 02:46:59;;;;;;;11.97;8.37;;;;;;;;;;4999884;28;20188;-74
2022/03/24 02:49:25;;;;;;;9.50;8.17;;;;;;;;;;4996107;28;20180;-74
2022/03/24 02:51:51;;;;;;;11.40;8.37;;;;;;;;;;5014359;28;20267;-74
2022/03/24 02:54:17;;;;;;;11.57;8.03;;;;;;;;;;5006486;28;20180;-74
2022/03/24 02:56:43;;;;;;;11.10;8.47;;;;;;;;;;5004183;28;20197;-74
2022/03/24 02:59:08;;;;;;;12.03;8.67;;;;;;;;;;4991005;28;20198;-74
2022/03/24 03:01:33;;;;;;;11.70;9.10;;;;;;;;;;4996636;28;20468;-74
2022/03/24 03:03:59;;;;;;;12.03;9.20;;;;;;;;;;4999509;28;20203;-74
2022/03/24 03:06:24;;;;;;;12.53;8.77;;;;;;;;;;5014385;28;20183;-74
2022/03/24 03:08:49;;;;;;;12.40;8.77;;;;;;;;;;5004516;28;20183;-74
2022/03/24 03:11:15;;;;;;;14.23;8.87;;;;;;;;;;5015421;28;20273;-75
2022/03/24 03:13:40;;;;;;;11.60;8.60;;;;;;;;;;5024436;28;20235;-74
2022/03/24 03:16:06;;;;;;;13.27;8.20;;;;;;;;;;4993442;28;20220;-74
2022/03/24 03:18:32;;;;;;;13.23;8.77;;;;;;;;;;5017116;28;20208;-74
2022/03/24 03:20:57;;;;;;;10.90;7.83;;;;;;;;;;5007519;28;20212;-74
2022/03/24 03:23:23;;;;;;;12.57;8.50;;;;;;;;;;5009495;28;20286;-74
2022/03/24 03:25:48;;;;;;;12.53;8.70;;;;;;;;;;4991601;28;20188;-74
2022/03/24 03:28:13;;;;;;;12.15;8.95;;;;;;;;;;4993662;28;20178;-74
2022/03/24 03:30:39;;;;;;;11.87;8.70;;;;;;;;;;4995887;28;20241;-74
2022/03/24 03:33:05;;;;;;;11.37;7.70;;;;;;;;;;4999210;28;20182;-75
2022/03/24 03:35:30;;;;;;;13.33;9.57;;;;;;;;;;5006215;28;20264;-75
2022/03/24 03:37:56;;;;;;;12.50;8.63;;;;;;;;;;4997630;28;20291;-74
2022/03/24 03:40:21;;;;;;;13.03;9.40;;;;;;;;;;5008967;28;20173;-75
2022/03/24 03:42:49;;;;;;;13.90;9.00;;;;;;;;;;4997184;28;20246;-74
2022/03/24 03:45:16;;;;;;;11.40;8.33;;;;;;;;;;4987418;28;20659;-74
2022/03/24 03:47:41;;;;;;;13.93;9.57;;;;;;;;;;5009959;28;20500;-74
2022/03/24 03:50:06;;;;;;;11.23;8.20;;;;;;;;;;5009218;28;20188;-74
2022/03/24 03:52:32;;;;;;;12.80;8.17;;;;;;;;;;5009285;28;20182;-74
2022/03/24 03:54:57;;;;;;;12.77;8.37;;;;;;;;;;5016640;28;20176;-74
2022/03/24 03:57:23;;;;;;;14.57;8.67;;;;;;;;;;4995358;28;20204;-74
2022/03/24 03:59:48;;;;;;;14.00;9.47;;;;;;;;;;5009668;28;20183;-74
2022/03/24 04:02:14;;;;;;;12.33;9.13;;;;;;;;;;4988550;28;20179;-74
2022/03/24 04:04:39;;;;;;;12.60;8.90;;;;;;;;;;5016481;28;20291;-75
2022/03/24 04:07:04;;;;;;;12.60;8.50;;;;;;;;;;5000690;28;20174;-74
2022/03/24 04:09:29;;;;;;;14.37;8.40;;;;;;;;;;4990108;28;20172;-74
2022/03/24 04:11:55;;;;;;;13.20;8.27;;;;;;;;;;4991015;28;20220;-74
2022/03/24 04:14:21;;;;;;;12.53;9.03;;;;;;;;;;5023747;28;20192;-74
2022/03/24 04:16:46;;;;;;;11.00;8.37;;;;;;;;;;5010594;28;20308;-74
2022/03/24 04:19:12;;;;;;;13.30;9.60;;;;;;;;;;5002246;28;20254;-74
2022/03/24 04:21:38;;;;;;;12.90;7.60;;;;;;;;;;4986776;28;20215;-75
2022/03/24 04:24:03;;;;;;;12.87;8.27;;;;;;;;;;4996983;28;20206;-74
2022/03/24 04:26:28;;;;;;;12.27;9.33;;;;;;;;;;5027909;28;20233;-74
2022/03/24 04:28:54;;;;;;;14.47;9.70;;;;;;;;;;5017972;28;20184;-74
2022/03/24 04:31:21;;;;;;;12.23;8.17;;;;;;;;;;5008752;28;20224;-74
2022/03/24 04:33:46;;;;;;;12.97;9.47;;;;;;;;;;5012884;28;20319;-74
2022/03/24 04:36:11;;;;;;;13.17;9.57;;;;;;;;;;5014025;28;20756;-74
2022/03/24 04:38:37;;;;;;;11.43;8.10;;;;;;;;;;4999506;28;20295;-74
2022/03/24 04:41:02;;;;;;;12.87;8.27;;;;;;;;;;4994840;28;20268;-74
2022/03/24 04:43:28;;;;;;;13.03;8.87;;;;;;;;;;4990099;28;20182;-74
2022/03/24 04:45:53;;;;;;;13.07;8.97;;;;;;;;;;4988062;28;20180;-75
2022/03/24 04:48:18;;;;;;;13.10;9.73;;;;;;;;;;5010702;28;20208;-74
2022/03/24 04:50:44;;;;;;;14.30;9.50;;;;;;;;;;4994155;28;20307;-74
2022/03/24 04:53:14;;;;;;;16.10;10.30;;;;;;;;;;5008433;28;20189;-74
2022/03/24 04:55:39;;;;;;;14.67;8.97;;;;;;;;;;5005411;28;20193;-74
2022/03/24 04:58:04;;;;;;;14.67;9.97;;;;;;;;;;4994587;28;20550;-74
2022/03/24 05:00:30;;;;;;;15.87;8.97;;;;;;;;;;5023769;28;20187;-74
2022/03/24 05:02:55;;;;;;;18.33;11.70;;;;;;;;;;5001748;28;20212;-74
2022/03/24 05:05:20;;;;;;;14.17;9.47;;;;;;;;;;5011761;28;20203;-74
2022/03/24 05:07:45;;;;;;;18.17;9.77;;;;;;;;;;5024116;28;20598;-74
2022/03/24 05:10:11;;;;;;;11.47;8.33;;;;;;;;;;4992429;28;20197;-74
2022/03/24 05:12:38;;;;;;;14.10;9.60;;;;;;;;;;5006015;28;20192;-74
2022/03/24 05:15:05;;;;;;;13.60;8.57;;;;;;;;;;5007733;28;20184;-74
2022/03/24 05:17:30;;;;;;;12.90;8.37;;;;;;;;;;5023158;28;20206;-74
2022/03/24 05:19:56;;;;;;;13.13;9.63;;;;;;;;;;5004859;28;20182;-74
2022/03/24 05:22:21;;;;;;;13.67;9.67;;;;;;;;;;5015056;28;20221;-74
2022/03/24 05:24:46;;;;;;;15.10;8.87;;;;;;;;;;5023909;28;20173;-74
2022/03/24 05:27:12;;;;;;;12.00;8.03;;;;;;;;;;5010304;28;20175;-74
2022/03/24 05:29:37;;;;;;;14.43;9.57;;;;;;;;;;5023610;28;20185;-74
2022/03/24 05:32:04;;;;;;;13.27;8.40;;;;;;;;;;5026550;28;20175;-73
2022/03/24 05:34:29;;;;;;;31.30;9.73;;;;;;;;;;5009059;28;20212;-74
2022/03/24 05:36:55;;;;;;;15.17;9.53;;;;;;;;;;4988850;28;20243;-74
2022/03/24 05:39:20;;;;;;;13.53;8.90;;;;;;;;;;4997477;28;20208;-74
2022/03/24 05:41:45;;;;;;;13.20;8.87;;;;;;;;;;5020619;28;20223;-74
2022/03/24 05:44:10;;;;;;;15.47;10.13;;;;;;;;;;5016969;28;20175;-74
2022/03/24 05:46:38;;;;;;;13.03;8.33;;;;;;;;;;5027177;28;20247;-74
2022/03/24 05:49:05;;;;;;;14.93;8.57;;;;;;;;;;5010037;28;20233;-74
2022/03/24 05:51:31;;;;;;;14.87;8.23;;;;;;;;;;4994556;28;20192;-74
2022/03/24 05:53:56;;;;;;;12.37;8.33;;;;;;;;;;5026381;28;20187;-74
2022/03/24 05:56:22;;;;;;;12.83;8.43;;;;;;;;;;4990981;28;20180;-74
2022/03/24 05:58:48;;;;;;;13.03;8.13;;;;;;;;;;5000970;28;20203;-76
2022/03/24 06:01:15;;;;;;;15.03;8.90;;;;;;;;;;4992844;28;20324;-74
2022/03/24 06:03:42;;;;;;;15.47;9.43;;;;;;;;;;5022125;28;20249;-74
2022/03/24 06:06:08;;;;;;;14.17;9.07;;;;;;;;;;5002063;28;20322;-75
2022/03/24 06:08:34;;;;;;;13.43;8.80;;;;;;;;;;5028129;28;20268;-74
2022/03/24 06:11:04;;;;;;;13.80;9.00;;;;;;;;;;4994774;28;20251;-74
2022/03/24 06:13:30;;;;;;;16.10;11.20;;;;;;;;;;4992111;28;20205;-74
2022/03/24 06:15:56;;;;;;;12.37;8.63;;;;;;;;;;5011890;28;20313;-74
2022/03/24 06:18:21;;;;;;;14.43;8.87;;;;;;;;;;5012963;28;20208;-74
2022/03/24 06:20:47;;;;;;;11.87;8.73;;;;;;;;;;5025457;28;20191;-74
2022/03/24 06:23:13;;;;;;;14.27;8.67;;;;;;;;;;5000140;28;20411;-74
2022/03/24 06:25:40;;;;;;;14.73;8.10;;;;;;;;;;5005756;28;20285;-74
2022/03/24 06:28:06;;;;;;;12.33;7.90;;;;;;;;;;5020524;28;20252;-74
2022/03/24 06:30:31;;;;;;;12.03;8.13;;;;;;;;;;5009246;28;20174;-74
2022/03/24 06:32:56;;;;;;;11.43;8.10;;;;;;;;;;4997275;28;20180;-74
2022/03/24 06:35:22;;;;;;;12.60;9.07;;;;;;;;;;5007114;28;20241;-73
2022/03/24 06:37:48;;;;;;;14.90;10.90;;;;;;;;;;4999977;28;20270;-73
2022/03/24 06:40:16;;;;;;;13.33;8.50;;;;;;;;;;4998648;28;20215;-73
2022/03/24 06:42:42;;;;;;;14.60;10.47;;;;;;;;;;5025773;28;20252;-74
2022/03/24 06:45:07;;;;;;;17.63;8.57;;;;;;;;;;4997232;28;20213;-73
2022/03/24 06:47:33;;;;;;;12.90;8.63;;;;;;;;;;5026858;28;20257;-74
2022/03/24 06:49:58;;;;;;;11.73;8.03;;;;;;;;;;4989335;28;20240;-73
2022/03/24 06:52:24;;;;;;;11.23;7.83;;;;;;;;;;4997701;28;20211;-73
2022/03/24 06:54:49;;;;;;;11.97;8.50;;;;;;;;;;5017752;28;20239;-73
2022/03/24 06:57:20;;;;;;;11.47;7.70;;;;;;;;;;4994505;28;20194;-73
2022/03/24 06:59:45;;;;;;;12.60;8.93;;;;;;;;;;5013836;28;20190;-73
2022/03/24 07:02:10;;;;;;;12.40;8.93;;;;;;;;;;4994324;28;20172;-73
2022/03/24 07:04:36;;;;;;;13.60;8.77;;;;;;;;;;5021818;28;20205;-73
2022/03/24 07:07:01;;;;;;;13.67;9.10;;;;;;;;;;4993154;28;20189;-73
2022/03/24 07:09:26;;;;;;;10.50;7.87;;;;;;;;;;5003117;28;20193;-73
2022/03/24 07:11:51;;;;;;;13.70;8.90;;;;;;;;;;5002820;28;20187;-73
2022/03/24 07:14:17;;;;;;;14.23;7.80;;;;;;;;;;4999743;28;20184;-73
2022/03/24 07:16:42;;;;;;;12.73;8.60;;;;;;;;;;5018570;28;20235;-73
2022/03/24 07:19:09;;;;;;;12.40;7.93;;;;;;;;;;5022097;28;20208;-73
2022/03/24 07:21:34;;;;;;;11.73;8.23;;;;;;;;;;4996938;28;20182;-74
2022/03/24 07:24:00;;;;;;;11.17;7.97;;;;;;;;;;5000425;28;20208;-73
2022/03/24 07:26:25;;;;;;;10.87;7.70;;;;;;;;;;4990629;28;20219;-73
2022/03/24 07:28:50;;;;;;;10.77;8.33;;;;;;;;;;4990329;28;20182;-74
2022/03/24 07:31:17;;;;;;;11.27;7.97;;;;;;;;;;4991533;28;20470;-73
2022/03/24 07:33:43;;;;;;;13.20;8.27;;;;;;;;;;4989972;28;20253;-74
2022/03/24 07:36:08;;;;;;;11.67;9.80;;;;;;;;;;4992258;28;20188;-73
2022/03/24 07:38:34;;;;;;;13.27;8.60;;;;;;;;;;5000985;28;20235;-74
2022/03/24 07:40:59;;;;;;;13.47;8.53;;;;;;;;;;4995459;28;20308;-73
2022/03/24 07:43:24;;;;;;;12.33;8.63;;;;;;;;;;4983934;28;20262;-73
2022/03/24 07:45:51;;;;;;;15.07;9.67;;;;;;;;;;5008092;28;20207;-73
2022/03/24 07:48:17;;;;;;;11.23;8.37;;;;;;;;;;4993167;28;20198;-74
2022/03/24 07:50:46;;;;;;;10.73;7.90;;;;;;;;;;5005377;28;20189;-73
2022/03/24 07:53:12;;;;;;;11.20;8.67;;;;;;;;;;4998799;28;20219;-76
2022/03/24 07:55:38;;;;;;;13.52;9.32;;;;;;;;;;5016804;28;20459;-73
2022/03/24 07:58:03;;;;;;;11.20;8.47;;;;;;;;;;5014348;28;20259;-73
2022/03/24 08:00:28;;;;;;;13.53;8.93;;;;;;;;;;4985706;28;20192;-73
2022/03/24 08:02:53;;;;;;;12.33;9.57;;;;;;;;;;4993901;28;20178;-73
2022/03/24 08:05:19;;;;;;;13.03;9.60;;;;;;;;;;4997666;28;20191;-73
2022/03/24 08:07:44;;;;;;;11.87;9.40;;;;;;;;;;5015965;28;20222;-73
2022/03/24 08:10:09;;;;;;;13.40;9.77;;;;;;;;;;4997939;28;20278;-74
2022/03/24 08:12:34;;;;;;;12.20;9.43;;;;;;;;;;5000876;28;20181;-73
2022/03/24 08:15:00;;;;;;;11.57;9.23;;;;;;;;;;5011033;28;20186;-73
2022/03/24 08:17:25;;;;;;;14.07;9.07;;;;;;;;;;4988459;28;20219;-73
2022/03/24 08:19:52;;;;;;;10.43;9.30;;;;;;;;;;5007130;28;20183;-73
2022/03/24 08:22:18;;;;;;;10.80;8.17;;;;;;;;;;5001478;28;20201;-74
2022/03/24 08:24:43;;;;;;;13.23;8.88;;;;;;;;;;5019968;28;20172;-73
2022/03/24 08:27:08;;;;;;;11.07;8.23;;;;;;;;;;4995882;28;20177;-73
2022/03/24 08:29:33;;;;;;;10.00;8.20;;;;;;;;;;5011960;28;20176;-73
2022/03/24 08:31:58;;;;;;;12.70;8.77;;;;;;;;;;5002867;28;20177;-73
2022/03/24 08:34:23;;;;;;;12.20;9.33;;;;;;;;;;4989215;28;20270;-73
2022/03/24 08:36:49;;;;;;;9.37;7.50;;;;;;;;;;5006428;28;20173;-73
2022/03/24 08:39:14;;;;;;;11.33;9.53;;;;;;;;;;4995269;28;20263;-73
2022/03/24 08:41:39;;;;;;;11.40;8.07;;;;;;;;;;5016850;28;20261;-73
2022/03/24 08:44:05;;;;;;;11.87;9.20;;;;;;;;;;5014802;28;20172;-73
2022/03/24 08:46:30;;;;;;;10.70;8.40;;;;;;;;;;4998319;28;20190;-73
2022/03/24 08:48:55;;;;;;;11.47;8.87;;;;;;;;;;4993657;28;20182;-73
2022/03/24 08:51:22;;;;;;;13.53;8.67;;;;;;;;;;5014406;28;20178;-73
2022/03/24 08:53:47;;;;;;;11.67;8.43;;;;;;;;;;5012617;28;20184;-73
2022/03/24 08:56:13;;;;;;;11.90;9.20;;;;;;;;;;5006876;28;20245;-73
2022/03/24 08:58:38;;;;;;;10.80;8.17;;;;;;;;;;5006001;28;20193;-73
2022/03/24 09:01:03;;;;;;;9.57;8.17;;;;;;;;;;5015981;28;20182;-73
2022/03/24 09:03:28;;;;;;;10.83;8.43;;;;;;;;;;4994142;28;20178;-74
2022/03/24 09:05:53;;;;;;;14.23;9.57;;;;;;;;;;5005422;28;20188;-73
2022/03/24 09:08:19;;;;;;;12.40;9.00;;;;;;;;;;5014865;28;20183;-74
2022/03/24 09:10:47;;;;;;;14.53;9.77;;;;;;;;;;5017299;28;20182;-73
2022/03/24 09:13:12;;;;;;;11.73;9.20;;;;;;;;;;4998169;28;20174;-73
2022/03/24 09:15:38;;;;;;;14.97;9.50;;;;;;;;;;4999582;28;20246;-73
2022/03/24 09:18:04;;;;;;;11.37;8.77;;;;;;;;;;4991353;28;20234;-73
2022/03/24 09:20:29;;;;;;;13.70;9.13;;;;;;;;;;5005418;28;20183;-73
2022/03/24 09:22:55;;;;;;;14.33;10.10;;;;;;;;;;5011257;28;20242;-73
2022/03/24 09:25:20;;;;;;;15.17;10.40;;;;;;;;;;4992137;28;20175;-73
2022/03/24 09:27:46;;;;;;;14.43;10.07;;;;;;;;;;4993362;28;21690;-74
2022/03/24 09:30:14;;;;;;;12.60;9.57;;;;;;;;;;4996852;28;20183;-73
2022/03/24 09:32:39;;;;;;;11.80;9.10;;;;;;;;;;5016296;28;20179;-74
2022/03/24 09:35:04;;;;;;;13.20;9.20;;;;;;;;;;5009322;28;20183;-74
2022/03/24 09:37:32;;;;;;;13.17;9.37;;;;;;;;;;5001415;28;20210;-73
2022/03/24 09:39:57;;;;;;;17.73;10.97;;;;;;;;;;5005065;28;20184;-73
2022/03/24 09:42:22;;;;;;;14.77;10.57;;;;;;;;;;4998388;28;20188;-73
2022/03/24 09:44:47;;;;;;;13.07;10.57;;;;;;;;;;5014870;28;20614;-73
2022/03/24 09:47:13;;;;;;;14.73;10.60;;;;;;;;;;4998157;28;20186;-73
2022/03/24 09:49:41;;;;;;;15.43;10.60;;;;;;;;;;4997569;28;20243;-73
2022/03/24 09:52:07;;;;;;;16.83;10.77;;;;;;;;;;5015987;28;21428;-73
2022/03/24 09:54:32;;;;;;;18.70;10.00;;;;;;;;;;5010571;28;20241;-74
2022/03/24 09:57:02;;;;;;;16.33;11.20;;;;;;;;;;5023204;28;20306;-73
2022/03/24 09:59:27;;;;;;;12.23;10.10;;;;;;;;;;4994394;28;20203;-73
2022/03/24 10:01:55;;;;;;;12.93;10.23;;;;;;;;;;4991998;28;20180;-74
2022/03/24 10:04:21;;;;;;;13.20;9.93;;;;;;;;;;5025334;28;20210;-73
2022/03/24 10:06:59;;;;;;;14.07;11.00;;;;;;;;;;5014898;28;20180;-73
2022/03/24 10:09:34;;;;;;;13.23;10.40;;;;;;;;;;5011348;28;20184;-74
2022/03/24 10:11:59;;;;;;;12.43;9.80;;;;;;;;;;5004681;28;20179;-73
2022/03/24 10:14:24;;;;;;;15.43;11.07;;;;;;;;;;4996231;28;20196;-74
2022/03/24 10:16:50;;;;;;;13.43;9.60;;;;;;;;;;4994663;28;20275;-74
2022/03/24 10:19:16;;;;;;;13.23;10.40;;;;;;;;;;5016120;28;20216;-74
2022/03/24 10:21:42;;;;;;;11.27;9.40;;;;;;;;;;5003773;28;20172;-73
2022/03/24 10:24:09;;;;;;;11.07;9.17;;;;;;;;;;5032647;28;20179;-74
2022/03/24 10:26:48;;;;;;;14.00;10.67;;;;;;;;;;5015042;28;20179;-74
2022/03/24 10:29:14;;;;;;;16.83;11.10;;;;;;;;;;4997232;28;20187;-74
2022/03/24 10:31:41;;;;;;;12.33;10.10;;;;;;;;;;5023478;28;20295;-74
2022/03/24 10:34:06;;;;;;;15.10;11.37;;;;;;;;;;4987779;28;20185;-77
2022/03/24 10:36:32;;;;;;;12.83;10.77;;;;;;;;;;4996520;28;20175;-79
2022/03/24 10:39:04;;;;;;;13.30;9.93;;;;;;;;;;4994202;28;20225;-74
2022/03/24 10:41:34;;;;;;;14.10;11.13;;;;;;;;;;4994014;28;20176;-74
2022/03/24 10:44:10;;;;;;;14.13;11.07;;;;;;;;;;4992933;28;20179;-74
2022/03/24 10:46:36;;;;;;;12.17;10.90;;;;;;;;;;5001074;28;20229;-74
2022/03/24 10:49:13;;;;;;;13.43;11.27;;;;;;;;;;4994929;28;20182;-74
2022/03/24 10:51:41;;;;;;;12.13;10.43;;;;;;;;;;5025843;28;20184;-74
2022/03/24 10:54:26;;;;;;;13.97;11.50;;;;;;;;;;4995318;28;20196;-74
2022/03/24 10:57:07;;;;;;;16.53;11.53;;;;;;;;;;4990717;28;20189;-74
2022/03/24 10:59:39;;;;;;;12.47;10.40;;;;;;;;;;5008661;28;20259;-74
2022/03/24 11:02:05;;;;;;;11.07;9.00;;;;;;;;;;5023896;28;20176;-74
2022/03/24 11:04:30;;;;;;;13.53;11.13;;;;;;;;;;5017755;28;20198;-74
2022/03/24 11:06:55;;;;;;;17.27;11.07;;;;;;;;;;4991046;28;20178;-74
2022/03/24 11:09:27;;;;;;;15.43;10.90;;;;;;;;;;4997640;28;20182;-73
2022/03/24 11:12:11;;;;;;;18.60;10.80;;;;;;;;;;5026549;28;20180;-74
2022/03/24 11:14:41;;;;;;;15.37;11.90;;;;;;;;;;5013719;28;20176;-73
2022/03/24 11:17:06;;;;;;;11.13;9.97;;;;;;;;;;5008941;28;20264;-74
2022/03/24 11:19:31;;;;;;;16.67;13.30;;;;;;;;;;4992899;28;20210;-74
2022/03/24 11:21:58;;;;;;;14.53;10.83;;;;;;;;;;4991815;28;20292;-74
2022/03/24 11:24:24;;;;;;;16.87;11.67;;;;;;;;;;4995363;28;20301;-73
2022/03/24 11:26:50;;;;;;;14.20;12.43;;;;;;;;;;5013383;28;20419;-73
2022/03/24 11:29:16;;;;;;;13.07;11.30;;;;;;;;;;5009023;28;20612;-74
2022/03/24 11:31:45;;;;;;;16.30;12.03;;;;;;;;;;4997356;28;20203;-74
2022/03/24 11:34:10;;;;;;;15.10;11.50;;;;;;;;;;5012267;28;20323;-74
2022/03/24 11:36:35;;;;;;;13.80;11.70;;;;;;;;;;5013809;28;20181;-74
2022/03/24 11:39:03;;;;;;;14.33;10.67;;;;;;;;;;5011068;28;20206;-74
2022/03/24 11:41:30;;;;;;;14.80;11.93;;;;;;;;;;5006716;28;20181;-74
2022/03/24 11:43:57;;;;;;;20.73;11.53;;;;;;;;;;4992244;28;20402;-74
2022/03/24 11:46:29;;;;;;;13.37;11.33;;;;;;;;;;5010424;28;20179;-74
2022/03/24 11:49:14;;;;;;;13.43;10.90;;;;;;;;;;5000270;28;20195;-74
2022/03/24 11:51:39;;;;;;;14.97;10.03;;;;;;;;;;5008474;28;20177;-73
2022/03/24 11:54:06;;;;;;;16.33;12.33;;;;;;;;;;5005504;28;20197;-74
2022/03/24 11:56:31;;;;;;;14.70;11.90;;;;;;;;;;5015761;28;20187;-74
2022/03/24 11:58:57;;;;;;;13.80;10.67;;;;;;;;;;5011127;28;20205;-74
2022/03/24 12:01:24;;;;;;;16.27;11.77;;;;;;;;;;4996032;28;20208;-74
2022/03/24 12:03:56;;;;;;;16.50;12.67;;;;;;;;;;4990863;28;20198;-74
2022/03/24 12:06:45;;;;;;;17.73;11.40;;;;;;;;;;5004571;28;20185;-74
2022/03/24 12:09:25;;;;;;;15.07;12.70;;;;;;;;;;4985138;28;20194;-74
2022/03/24 12:11:54;;;;;;;13.77;11.07;;;;;;;;;;5002068;28;20182;-74
2022/03/24 12:14:32;;;;;;;18.73;12.30;;;;;;;;;;5008575;28;20256;-74
2022/03/24 12:16:57;;;;;;;16.17;12.97;;;;;;;;;;5003930;28;20226;-74
2022/03/24 12:19:32;;;;;;;17.77;13.00;;;;;;;;;;5003256;28;20265;-74
2022/03/24 12:21:58;;;;;;;18.03;13.77;;;;;;;;;;5000399;28;20187;-74
2022/03/24 12:24:23;;;;;;;19.43;12.63;;;;;;;;;;4996462;28;20190;-74
2022/03/24 12:26:53;;;;;;;16.33;11.53;;;;;;;;;;4992952;28;20175;-74
2022/03/24 12:29:22;;;;;;;16.80;11.60;;;;;;;;;;4999618;28;20273;-74
2022/03/24 12:32:03;;;;;;;16.23;12.40;;;;;;;;;;4996684;28;20232;-73
2022/03/24 12:34:45;;;;;;;14.83;13.33;;;;;;;;;;4994013;28;20195;-74
2022/03/24 12:37:22;;;;;;;14.87;11.53;;;;;;;;;;5000658;28;20276;-74
2022/03/24 12:39:47;;;;;;;14.30;11.13;;;;;;;;;;5010540;28;20194;-73
2022/03/24 12:42:14;;;;;;;15.77;13.50;;;;;;;;;;4998421;28;20267;-74
2022/03/24 12:44:55;;;;;;;16.73;13.73;;;;;;;;;;5000834;28;20251;-74
2022/03/24 12:47:30;;;;;;;14.23;11.30;;;;;;;;;;5015910;28;20242;-74
2022/03/24 12:49:58;;;;;;;17.30;12.90;;;;;;;;;;5016859;28;20198;-74
2022/03/24 12:52:46;;;;;;;15.20;12.93;;;;;;;;;;5009771;28;20190;-74
2022/03/24 12:55:19;;;;;;;14.27;12.77;;;;;;;;;;5010471;28;20209;-74
2022/03/24 12:57:53;;;;;;;16.07;12.77;;;;;;;;;;4991331;28;20217;-74
2022/03/24 13:00:18;;;;;;;14.37;11.27;;;;;;;;;;5016689;28;20189;-74
2022/03/24 13:02:43;;;;;;;17.63;12.17;;;;;;;;;;5000354;28;20187;-74
2022/03/24 13:05:11;;;;;;;16.53;11.80;;;;;;;;;;4997301;28;20207;-73
2022/03/24 13:07:37;;;;;;;12.53;10.87;;;;;;;;;;4993129;28;20283;-74
2022/03/24 13:10:06;;;;;;;16.20;14.17;;;;;;;;;;4999367;28;20215;-74
2022/03/24 13:12:32;;;;;;;14.87;12.37;;;;;;;;;;5011260;28;20171;-74
2022/03/24 13:14:58;;;;;;;17.20;12.50;;;;;;;;;;5013925;28;20249;-74
2022/03/24 13:17:26;;;;;;;16.03;12.10;;;;;;;;;;4995769;28;20314;-74
2022/03/24 13:19:51;;;;;;;16.37;13.20;;;;;;;;;;4998297;28;20185;-74
2022/03/24 13:22:22;;;;;;;16.90;11.47;;;;;;;;;;5020508;28;20183;-74
2022/03/24 13:24:56;;;;;;;17.47;12.37;;;;;;;;;;5009770;28;20181;-74
2022/03/24 13:27:22;;;;;;;16.77;12.67;;;;;;;;;;5006967;28;20259;-74
2022/03/24 13:29:47;;;;;;;16.07;13.17;;;;;;;;;;5022269;28;20273;-74
2022/03/24 13:32:14;;;;;;;16.97;14.67;;;;;;;;;;4993879;28;20189;-74
2022/03/24 13:34:45;;;;;;;16.17;13.17;;;;;;;;;;5008902;28;20205;-74
2022/03/24 13:37:12;;;;;;;16.17;12.60;;;;;;;;;;5015849;28;20179;-74
2022/03/24 13:39:37;;;;;;;14.97;12.17;;;;;;;;;;5014355;28;20300;-74
2022/03/24 13:42:07;;;;;;;19.37;12.23;;;;;;;;;;5012080;28;20264;-73
2022/03/24 13:44:34;;;;;;;16.20;11.83;;;;;;;;;;5028484;28;20185;-74
2022/03/24 13:46:59;;;;;;;15.90;13.37;;;;;;;;;;5012173;28;20180;-74
2022/03/24 13:49:25;;;;;;;16.03;13.13;;;;;;;;;;5021240;28;20186;-74
2022/03/24 13:51:51;;;;;;;16.47;13.93;;;;;;;;;;4997541;28;20188;-74
2022/03/24 13:54:19;;;;;;;18.50;12.60;;;;;;;;;;5013090;28;20264;-74
2022/03/24 13:56:44;;;;;;;19.70;13.27;;;;;;;;;;5001058;28;20220;-74
2022/03/24 13:59:10;;;;;;;16.83;12.30;;;;;;;;;;5030505;28;20241;-74
2022/03/24 14:01:35;;;;;;;14.67;12.07;;;;;;;;;;4997637;28;20185;-74
2022/03/24 14:04:00;;;;;;;17.60;15.47;;;;;;;;;;4998175;28;20254;-74
2022/03/24 14:06:25;;;;;;;25.30;14.23;;;;;;;;;;5014645;28;20167;-74
2022/03/24 14:08:52;;;;;;;20.63;11.87;;;;;;;;;;5016366;28;20187;-74
2022/03/24 14:11:21;;;;;;;16.27;13.23;;;;;;;;;;5021557;28;20174;-74
2022/03/24 14:13:50;;;;;;;15.77;13.13;;;;;;;;;;5012714;28;20285;-74
2022/03/24 14:16:17;;;;;;;17.53;12.70;;;;;;;;;;5024128;28;20238;-73
2022/03/24 14:19:01;;;;;;;15.57;13.40;;;;;;;;;;4992746;28;20216;-74
2022/03/24 14:21:26;;;;;;;14.87;13.27;;;;;;;;;;5011609;28;20175;-74